sensor_id;sensor_type;location;lat;lon;timestamp;P1;durP1;ratioP1;P2;durP2;ratioP2
12800;SDS011;6464;42.494;27.470;2023-05-07T04:01:04;4.70;;;4.60;;
12800;SDS011;6464;42.494;27.470;2023-05-07T04:03:49;4.60;;;4.50;;
12800;SDS011;6464;42.494;27.470;2023-05-07T04:06:20;4.37;;;4.27;;
12800;SDS011;6464;42.494;27.470;2023-05-07T04:08:48;4.60;;;4.50;;
12800;SDS011;6464;42.494;27.470;2023-05-07T04:11:27;5.00;;;4.90;;
12800;SDS011;6464;42.494;27.470;2023-05-07T04:14:20;4.67;;;4.57;;
12800;SDS011;6464;42.494;27.470;2023-05-07T04:17:31;4.67;;;4.57;;
12800;SDS011;6464;42.494;27.470;2023-05-07T04:20:02;5.00;;;4.90;;
12800;SDS011;6464;42.494;27.470;2023-05-07T04:22:34;4.85;;;4.75;;
12800;SDS011;6464;42.494;27.470;2023-05-07T04:32:53;5.30;;;5.20;;
12800;SDS011;6464;42.494;27.470;2023-05-07T04:35:28;5.40;;;5.30;;
12800;SDS011;6464;42.494;27.470;2023-05-07T04:38:04;5.10;;;5.00;;
12800;SDS011;6464;42.494;27.470;2023-05-07T04:40:40;4.97;;;4.88;;
12800;SDS011;6464;42.494;27.470;2023-05-07T04:43:22;5.20;;;5.10;;
12800;SDS011;6464;42.494;27.470;2023-05-07T04:45:50;5.20;;;5.10;;
12800;SDS011;6464;42.494;27.470;2023-05-07T04:51:12;5.38;;;5.28;;
12800;SDS011;6464;42.494;27.470;2023-05-07T04:56:17;5.35;;;5.25;;
12800;SDS011;6464;42.494;27.470;2023-05-07T04:58:44;5.32;;;5.22;;
12800;SDS011;6464;42.494;27.470;2023-05-07T05:01:13;5.40;;;5.30;;
12800;SDS011;6464;42.494;27.470;2023-05-07T05:03:56;5.78;;;5.68;;
12800;SDS011;6464;42.494;27.470;2023-05-07T05:06:27;5.90;;;5.80;;
12800;SDS011;6464;42.494;27.470;2023-05-07T05:08:55;5.80;;;5.70;;
12800;SDS011;6464;42.494;27.470;2023-05-07T05:11:35;6.00;;;5.90;;
12800;SDS011;6464;42.494;27.470;2023-05-07T05:14:22;5.90;;;5.80;;
12800;SDS011;6464;42.494;27.470;2023-05-07T05:16:51;5.75;;;5.65;;
12800;SDS011;6464;42.494;27.470;2023-05-07T05:19:18;5.60;;;5.50;;
12800;SDS011;6464;42.494;27.470;2023-05-07T05:21:54;6.03;;;5.90;;
12800;SDS011;6464;42.494;27.470;2023-05-07T05:24:22;6.20;;;6.00;;
12800;SDS011;6464;42.494;27.470;2023-05-07T05:27:12;6.20;;;6.00;;
12800;SDS011;6464;42.494;27.470;2023-05-07T05:29:43;6.22;;;6.03;;
12800;SDS011;6464;42.494;27.470;2023-05-07T05:32:19;6.30;;;6.10;;
12800;SDS011;6464;42.494;27.470;2023-05-07T05:35:03;6.25;;;6.05;;
12800;SDS011;6464;42.494;27.470;2023-05-07T05:37:43;6.38;;;6.18;;
12800;SDS011;6464;42.494;27.470;2023-05-07T05:40:12;6.50;;;6.30;;
12800;SDS011;6464;42.494;27.470;2023-05-07T05:42:47;5.93;;;5.82;;
12800;SDS011;6464;42.494;27.470;2023-05-07T05:56:36;6.25;;;6.05;;
12800;SDS011;6464;42.494;27.470;2023-05-07T05:59:06;6.30;;;6.10;;
12800;SDS011;6464;42.494;27.470;2023-05-07T06:01:34;6.60;;;6.40;;
12800;SDS011;6464;42.494;27.470;2023-05-07T06:04:02;6.20;;;6.00;;
12800;SDS011;6464;42.494;27.470;2023-05-07T06:06:47;6.35;;;6.15;;
12800;SDS011;6464;42.494;27.470;2023-05-07T06:14:49;6.13;;;5.97;;
12800;SDS011;6464;42.494;27.470;2023-05-07T06:17:30;6.50;;;6.30;;
12800;SDS011;6464;42.494;27.470;2023-05-07T06:20:01;6.60;;;6.40;;
12800;SDS011;6464;42.494;27.470;2023-05-07T06:22:43;6.60;;;6.40;;
12800;SDS011;6464;42.494;27.470;2023-05-07T06:25:13;6.50;;;6.30;;
12800;SDS011;6464;42.494;27.470;2023-05-07T07:08:49;7.20;;;7.00;;
12800;SDS011;6464;42.494;27.470;2023-05-07T07:17:27;7.07;;;6.88;;
12800;SDS011;6464;42.494;27.470;2023-05-07T07:26:11;6.45;;;6.25;;
12800;SDS011;6464;42.494;27.470;2023-05-07T07:31:24;7.15;;;6.95;;
12800;SDS011;6464;42.494;27.470;2023-05-07T07:34:05;7.30;;;7.10;;
12800;SDS011;6464;42.494;27.470;2023-05-07T07:42:13;6.53;;;6.32;;
12800;SDS011;6464;42.494;27.470;2023-05-07T08:04:56;7.32;;;7.13;;
12800;SDS011;6464;42.494;27.470;2023-05-07T08:07:28;7.35;;;7.15;;
12800;SDS011;6464;42.494;27.470;2023-05-07T08:12:45;7.18;;;6.97;;
12800;SDS011;6464;42.494;27.470;2023-05-07T08:15:23;7.30;;;7.10;;
12800;SDS011;6464;42.494;27.470;2023-05-07T08:47:52;6.93;;;6.72;;
12800;SDS011;6464;42.494;27.470;2023-05-07T08:50:53;6.90;;;6.70;;
12800;SDS011;6464;42.494;27.470;2023-05-07T09:39:56;7.10;;;6.90;;
12800;SDS011;6464;42.494;27.470;2023-05-07T09:42:23;7.28;;;7.07;;
12800;SDS011;6464;42.494;27.470;2023-05-07T09:44:51;7.45;;;7.25;;
12800;SDS011;6464;42.494;27.470;2023-05-07T09:47:19;7.50;;;7.30;;
12800;SDS011;6464;42.494;27.470;2023-05-07T09:49:47;7.65;;;7.45;;
12800;SDS011;6464;42.494;27.470;2023-05-07T09:52:14;7.95;;;7.75;;
12800;SDS011;6464;42.494;27.470;2023-05-07T09:54:43;7.82;;;7.63;;
12800;SDS011;6464;42.494;27.470;2023-05-07T09:57:12;7.80;;;7.60;;
12800;SDS011;6464;42.494;27.470;2023-05-07T09:59:41;7.70;;;7.50;;
12800;SDS011;6464;42.494;27.470;2023-05-07T10:02:10;7.38;;;7.18;;
12800;SDS011;6464;42.494;27.470;2023-05-07T10:04:38;7.45;;;7.25;;
12800;SDS011;6464;42.494;27.470;2023-05-07T10:07:06;7.63;;;7.43;;
12800;SDS011;6464;42.494;27.470;2023-05-07T10:09:35;8.07;;;7.88;;
12800;SDS011;6464;42.494;27.470;2023-05-07T10:12:04;8.10;;;7.90;;
12800;SDS011;6464;42.494;27.470;2023-05-07T10:14:33;7.60;;;7.40;;
12800;SDS011;6464;42.494;27.470;2023-05-07T10:17:00;7.47;;;7.28;;
12800;SDS011;6464;42.494;27.470;2023-05-07T10:19:28;7.57;;;7.38;;
12800;SDS011;6464;42.494;27.470;2023-05-07T10:21:56;8.30;;;8.00;;
12800;SDS011;6464;42.494;27.470;2023-05-07T10:24:30;7.70;;;7.50;;
12800;SDS011;6464;42.494;27.470;2023-05-07T10:26:59;7.63;;;7.43;;
12800;SDS011;6464;42.494;27.470;2023-05-07T10:29:30;7.72;;;7.53;;
12800;SDS011;6464;42.494;27.470;2023-05-07T10:35:03;7.18;;;6.97;;
12800;SDS011;6464;42.494;27.470;2023-05-07T10:37:33;7.40;;;7.20;;
12800;SDS011;6464;42.494;27.470;2023-05-07T10:40:01;7.80;;;7.60;;
12800;SDS011;6464;42.494;27.470;2023-05-07T10:42:28;7.55;;;7.35;;
12800;SDS011;6464;42.494;27.470;2023-05-07T10:44:57;7.50;;;7.30;;
12800;SDS011;6464;42.494;27.470;2023-05-07T10:47:24;7.60;;;7.40;;
12800;SDS011;6464;42.494;27.470;2023-05-07T10:55:51;7.60;;;7.40;;
12800;SDS011;6464;42.494;27.470;2023-05-07T10:58:38;7.80;;;7.60;;
12800;SDS011;6464;42.494;27.470;2023-05-07T11:01:06;7.40;;;7.20;;
12800;SDS011;6464;42.494;27.470;2023-05-07T11:03:35;7.70;;;7.50;;
12800;SDS011;6464;42.494;27.470;2023-05-07T11:06:11;7.70;;;7.50;;
12800;SDS011;6464;42.494;27.470;2023-05-07T11:08:55;8.38;;;8.07;;
12800;SDS011;6464;42.494;27.470;2023-05-07T11:14:27;7.80;;;7.60;;
12800;SDS011;6464;42.494;27.470;2023-05-07T11:17:11;7.68;;;7.47;;
12800;SDS011;6464;42.494;27.470;2023-05-07T11:22:36;7.68;;;7.47;;
12800;SDS011;6464;42.494;27.470;2023-05-07T11:25:05;7.75;;;7.55;;
12800;SDS011;6464;42.494;27.470;2023-05-07T11:27:33;7.70;;;7.50;;
12800;SDS011;6464;42.494;27.470;2023-05-07T11:30:00;7.45;;;7.25;;
12800;SDS011;6464;42.494;27.470;2023-05-07T11:32:29;7.25;;;7.05;;
12800;SDS011;6464;42.494;27.470;2023-05-07T11:34:58;8.00;;;7.80;;
12800;SDS011;6464;42.494;27.470;2023-05-07T11:37:26;8.63;;;8.32;;
12800;SDS011;6464;42.494;27.470;2023-05-07T11:40:01;7.75;;;7.55;;
12800;SDS011;6464;42.494;27.470;2023-05-07T11:42:31;7.90;;;7.70;;
12800;SDS011;6464;42.494;27.470;2023-05-07T11:44:59;8.30;;;8.00;;
12800;SDS011;6464;42.494;27.470;2023-05-07T11:47:26;8.20;;;7.90;;
12800;SDS011;6464;42.494;27.470;2023-05-07T11:50:02;8.40;;;8.10;;
12800;SDS011;6464;42.494;27.470;2023-05-07T11:52:30;7.45;;;7.25;;
12800;SDS011;6464;42.494;27.470;2023-05-07T11:54:58;7.78;;;7.57;;
12800;SDS011;6464;42.494;27.470;2023-05-07T11:57:26;7.97;;;7.78;;
12800;SDS011;6464;42.494;27.470;2023-05-07T11:59:53;8.50;;;8.20;;
12800;SDS011;6464;42.494;27.470;2023-05-07T12:02:20;8.50;;;8.20;;
12800;SDS011;6464;42.494;27.470;2023-05-07T12:04:51;7.90;;;7.70;;
12800;SDS011;6464;42.494;27.470;2023-05-07T12:07:18;8.30;;;8.00;;
12800;SDS011;6464;42.494;27.470;2023-05-07T12:09:45;8.50;;;8.20;;
12800;SDS011;6464;42.494;27.470;2023-05-07T12:12:13;8.27;;;7.97;;
12800;SDS011;6464;42.494;27.470;2023-05-07T12:14:41;8.90;;;8.60;;
12800;SDS011;6464;42.494;27.470;2023-05-07T12:17:09;7.50;;;7.30;;
12800;SDS011;6464;42.494;27.470;2023-05-07T12:19:39;8.00;;;7.80;;
12800;SDS011;6464;42.494;27.470;2023-05-07T12:22:09;8.20;;;7.93;;
12800;SDS011;6464;42.494;27.470;2023-05-07T12:24:43;8.05;;;7.82;;
12800;SDS011;6464;42.494;27.470;2023-05-07T12:27:10;8.00;;;7.80;;
12800;SDS011;6464;42.494;27.470;2023-05-07T12:29:38;8.20;;;7.90;;
12800;SDS011;6464;42.494;27.470;2023-05-07T12:32:12;8.50;;;8.20;;
12800;SDS011;6464;42.494;27.470;2023-05-07T12:34:40;8.27;;;7.97;;
12800;SDS011;6464;42.494;27.470;2023-05-07T12:37:08;8.60;;;8.30;;
12800;SDS011;6464;42.494;27.470;2023-05-07T12:39:35;7.43;;;7.22;;
12800;SDS011;6464;42.494;27.470;2023-05-07T12:42:02;7.72;;;7.53;;
12800;SDS011;6464;42.494;27.470;2023-05-07T12:44:30;7.85;;;7.65;;
12800;SDS011;6464;42.494;27.470;2023-05-07T12:46:58;8.40;;;8.10;;
12800;SDS011;6464;42.494;27.470;2023-05-07T12:49:27;8.10;;;7.90;;
12800;SDS011;6464;42.494;27.470;2023-05-07T12:51:54;7.40;;;7.20;;
12800;SDS011;6464;42.494;27.470;2023-05-07T12:54:29;7.70;;;7.50;;
12800;SDS011;6464;42.494;27.470;2023-05-07T12:57:00;7.10;;;6.90;;
12800;SDS011;6464;42.494;27.470;2023-05-07T12:59:32;7.50;;;7.30;;
12800;SDS011;6464;42.494;27.470;2023-05-07T13:01:59;8.00;;;7.80;;
12800;SDS011;6464;42.494;27.470;2023-05-07T13:04:26;7.53;;;7.32;;
12800;SDS011;6464;42.494;27.470;2023-05-07T13:06:53;7.40;;;7.20;;
12800;SDS011;6464;42.494;27.470;2023-05-07T13:09:20;7.70;;;7.50;;
12800;SDS011;6464;42.494;27.470;2023-05-07T13:11:48;7.47;;;7.28;;
12800;SDS011;6464;42.494;27.470;2023-05-07T13:14:15;7.75;;;7.55;;
12800;SDS011;6464;42.494;27.470;2023-05-07T13:16:42;6.80;;;6.60;;
12800;SDS011;6464;42.494;27.470;2023-05-07T13:19:09;7.80;;;7.60;;
12800;SDS011;6464;42.494;27.470;2023-05-07T13:21:36;7.65;;;7.45;;
12800;SDS011;6464;42.494;27.470;2023-05-07T13:24:03;7.68;;;7.47;;
12800;SDS011;6464;42.494;27.470;2023-05-07T13:26:30;7.40;;;7.20;;
12800;SDS011;6464;42.494;27.470;2023-05-07T13:28:59;8.30;;;8.00;;
12800;SDS011;6464;42.494;27.470;2023-05-07T13:31:26;7.80;;;7.60;;
12800;SDS011;6464;42.494;27.470;2023-05-07T13:33:53;8.20;;;7.90;;
12800;SDS011;6464;42.494;27.470;2023-05-07T13:36:21;7.35;;;7.15;;
12800;SDS011;6464;42.494;27.470;2023-05-07T13:38:48;7.32;;;7.13;;
12800;SDS011;6464;42.494;27.470;2023-05-07T13:41:15;8.05;;;7.82;;
12800;SDS011;6464;42.494;27.470;2023-05-07T13:43:42;8.02;;;7.82;;
12800;SDS011;6464;42.494;27.470;2023-05-07T13:46:10;8.20;;;7.90;;
12800;SDS011;6464;42.494;27.470;2023-05-07T13:48:37;7.35;;;7.15;;
12800;SDS011;6464;42.494;27.470;2023-05-07T13:51:04;7.40;;;7.20;;
12800;SDS011;6464;42.494;27.470;2023-05-07T13:53:31;7.75;;;7.55;;
12800;SDS011;6464;42.494;27.470;2023-05-07T13:55:58;8.10;;;7.88;;
12800;SDS011;6464;42.494;27.470;2023-05-07T13:58:25;8.50;;;8.20;;
12800;SDS011;6464;42.494;27.470;2023-05-07T14:00:51;7.70;;;7.50;;
12800;SDS011;6464;42.494;27.470;2023-05-07T14:03:20;7.88;;;7.68;;
12800;SDS011;6464;42.494;27.470;2023-05-07T14:05:47;8.40;;;8.10;;
12800;SDS011;6464;42.494;27.470;2023-05-07T14:08:14;8.00;;;7.80;;
12800;SDS011;6464;42.494;27.470;2023-05-07T14:10:42;8.57;;;8.27;;
12800;SDS011;6464;42.494;27.470;2023-05-07T14:13:09;7.60;;;7.40;;
12800;SDS011;6464;42.494;27.470;2023-05-07T14:15:36;7.88;;;7.68;;
12800;SDS011;6464;42.494;27.470;2023-05-07T14:18:03;7.93;;;7.72;;
12800;SDS011;6464;42.494;27.470;2023-05-07T14:20:32;7.97;;;7.78;;
12800;SDS011;6464;42.494;27.470;2023-05-07T14:23:01;7.68;;;7.47;;
12800;SDS011;6464;42.494;27.470;2023-05-07T14:25:28;7.85;;;7.65;;
12800;SDS011;6464;42.494;27.470;2023-05-07T14:27:55;7.93;;;7.72;;
12800;SDS011;6464;42.494;27.470;2023-05-07T14:30:22;7.82;;;7.63;;
12800;SDS011;6464;42.494;27.470;2023-05-07T14:32:50;7.80;;;7.60;;
12800;SDS011;6464;42.494;27.470;2023-05-07T14:35:17;7.60;;;7.40;;
12800;SDS011;6464;42.494;27.470;2023-05-07T14:37:46;7.30;;;7.10;;
12800;SDS011;6464;42.494;27.470;2023-05-07T14:40:13;7.90;;;7.70;;
12800;SDS011;6464;42.494;27.470;2023-05-07T14:42:40;8.40;;;8.10;;
12800;SDS011;6464;42.494;27.470;2023-05-07T14:45:08;8.63;;;8.32;;
12800;SDS011;6464;42.494;27.470;2023-05-07T14:47:35;7.80;;;7.60;;
12800;SDS011;6464;42.494;27.470;2023-05-07T14:50:03;7.90;;;7.70;;
12800;SDS011;6464;42.494;27.470;2023-05-07T14:52:30;8.00;;;7.80;;
12800;SDS011;6464;42.494;27.470;2023-05-07T14:54:58;8.15;;;7.90;;
12800;SDS011;6464;42.494;27.470;2023-05-07T14:57:25;8.48;;;8.18;;
12800;SDS011;6464;42.494;27.470;2023-05-07T14:59:52;7.70;;;7.50;;
12800;SDS011;6464;42.494;27.470;2023-05-07T15:02:19;7.72;;;7.53;;
12800;SDS011;6464;42.494;27.470;2023-05-07T15:04:46;8.15;;;7.88;;
12800;SDS011;6464;42.494;27.470;2023-05-07T15:07:13;7.88;;;7.68;;
12800;SDS011;6464;42.494;27.470;2023-05-07T15:09:41;8.27;;;7.97;;
12800;SDS011;6464;42.494;27.470;2023-05-07T15:12:09;7.90;;;7.70;;
12800;SDS011;6464;42.494;27.470;2023-05-07T15:14:36;7.97;;;7.78;;
12800;SDS011;6464;42.494;27.470;2023-05-07T15:17:03;7.90;;;7.70;;
12800;SDS011;6464;42.494;27.470;2023-05-07T15:19:30;7.65;;;7.45;;
12800;SDS011;6464;42.494;27.470;2023-05-07T15:21:57;7.70;;;7.50;;
12800;SDS011;6464;42.494;27.470;2023-05-07T15:24:27;8.10;;;7.90;;
12800;SDS011;6464;42.494;27.470;2023-05-07T15:26:54;8.25;;;7.95;;
12800;SDS011;6464;42.494;27.470;2023-05-07T15:29:23;8.40;;;8.10;;
12800;SDS011;6464;42.494;27.470;2023-05-07T15:31:50;7.60;;;7.40;;
12800;SDS011;6464;42.494;27.470;2023-05-07T15:34:17;8.05;;;7.85;;
12800;SDS011;6464;42.494;27.470;2023-05-07T15:36:44;8.40;;;8.10;;
12800;SDS011;6464;42.494;27.470;2023-05-07T15:39:11;8.63;;;8.32;;
12800;SDS011;6464;42.494;27.470;2023-05-07T15:41:38;8.23;;;7.95;;
12800;SDS011;6464;42.494;27.470;2023-05-07T15:44:05;7.63;;;7.43;;
12800;SDS011;6464;42.494;27.470;2023-05-07T15:46:33;7.60;;;7.40;;
12800;SDS011;6464;42.494;27.470;2023-05-07T15:49:01;8.05;;;7.85;;
12800;SDS011;6464;42.494;27.470;2023-05-07T15:51:29;8.40;;;8.10;;
12800;SDS011;6464;42.494;27.470;2023-05-07T15:53:56;8.50;;;8.20;;
12800;SDS011;6464;42.494;27.470;2023-05-07T15:56:23;7.70;;;7.50;;
12800;SDS011;6464;42.494;27.470;2023-05-07T15:58:50;7.75;;;7.55;;
12800;SDS011;6464;42.494;27.470;2023-05-07T16:01:17;7.57;;;7.38;;
12800;SDS011;6464;42.494;27.470;2023-05-07T16:03:46;8.00;;;7.80;;
12800;SDS011;6464;42.494;27.470;2023-05-07T16:06:15;8.40;;;8.10;;
12800;SDS011;6464;42.494;27.470;2023-05-07T16:43:40;6.93;;;6.72;;
12800;SDS011;6464;42.494;27.470;2023-05-07T16:46:08;6.80;;;6.60;;
12800;SDS011;6464;42.494;27.470;2023-05-07T16:48:37;7.18;;;6.97;;
12800;SDS011;6464;42.494;27.470;2023-05-07T16:51:09;7.45;;;7.25;;
12800;SDS011;6464;42.494;27.470;2023-05-07T16:53:45;7.30;;;7.10;;
12800;SDS011;6464;42.494;27.470;2023-05-07T16:56:13;6.60;;;6.40;;
12800;SDS011;6464;42.494;27.470;2023-05-07T16:58:49;6.40;;;6.20;;
12800;SDS011;6464;42.494;27.470;2023-05-07T17:01:19;6.40;;;6.20;;
12800;SDS011;6464;42.494;27.470;2023-05-07T17:03:49;6.47;;;6.28;;
12800;SDS011;6464;42.494;27.470;2023-05-07T17:06:19;6.60;;;6.40;;
12800;SDS011;6464;42.494;27.470;2023-05-07T17:08:51;5.90;;;5.80;;
12800;SDS011;6464;42.494;27.470;2023-05-07T17:11:20;6.60;;;6.40;;
12800;SDS011;6464;42.494;27.470;2023-05-07T17:13:58;6.80;;;6.60;;
12800;SDS011;6464;42.494;27.470;2023-05-07T17:16:26;6.50;;;6.30;;
12800;SDS011;6464;42.494;27.470;2023-05-07T17:18:56;6.60;;;6.40;;
12800;SDS011;6464;42.494;27.470;2023-05-07T17:21:24;6.30;;;6.10;;
12800;SDS011;6464;42.494;27.470;2023-05-07T17:23:55;6.47;;;6.28;;
12800;SDS011;6464;42.494;27.470;2023-05-07T17:26:22;6.38;;;6.18;;
12800;SDS011;6464;42.494;27.470;2023-05-07T17:34:56;5.30;;;5.20;;
12800;SDS011;6464;42.494;27.470;2023-05-07T17:45:28;4.40;;;4.30;;
12800;SDS011;6464;42.494;27.470;2023-05-07T17:48:39;4.15;;;4.05;;
12800;SDS011;6464;42.494;27.470;2023-05-07T17:51:22;4.60;;;4.50;;
12800;SDS011;6464;42.494;27.470;2023-05-07T17:53:57;4.68;;;4.57;;
12800;SDS011;6464;42.494;27.470;2023-05-07T17:59:23;4.38;;;4.28;;
12800;SDS011;6464;42.494;27.470;2023-05-07T21:53:10;0.10;;;0.10;;
12800;SDS011;6464;42.494;27.470;2023-05-07T21:58:37;0.10;;;0.10;;
12800;SDS011;6464;42.494;27.470;2023-05-07T22:01:10;0.20;;;0.20;;
